Time;durP1;ratioP1;P1;durP2;ratioP2;P2;SDS_P1;SDS_P2;PMS_P1;PMS_P2;Temp;Humidity;BMP_temperature;BMP_pressure;BME280_temperature;BME280_humidity;BME280_pressure;Samples;Min_cycle;Max_cycle;Signal;HPM_P1;HPM_P2
2022/05/09 00:01:07;;;;;;;2.08;1.45;;;9.60;73.40;;;;;;617549;233;26597;-75
2022/05/09 00:03:35;;;;;;;1.85;1.27;;;9.50;75.40;;;;;;620479;230;26949;-74
2022/05/09 00:06:03;;;;;;;1.67;1.37;;;9.50;75.20;;;;;;625873;229;27228;-75
2022/05/09 00:08:30;;;;;;;2.53;1.60;;;9.50;75.20;;;;;;619549;229;26964;-75
2022/05/09 00:10:58;;;;;;;1.65;1.40;;;9.40;76.00;;;;;;617504;230;26566;-75
2022/05/09 00:13:25;;;;;;;1.25;1.15;;;9.40;75.90;;;;;;617303;233;26626;-75
2022/05/09 00:15:53;;;;;;;2.40;1.30;;;9.40;76.60;;;;;;621930;230;26592;-75
2022/05/09 00:18:21;;;;;;;2.53;1.60;;;9.40;79.20;;;;;;619840;230;26626;-74
2022/05/09 00:20:48;;;;;;;3.03;1.70;;;9.30;78.50;;;;;;624667;230;26786;-75
2022/05/09 00:23:15;;;;;;;1.20;1.10;;;9.30;78.10;;;;;;619719;230;26657;-74
2022/05/09 00:25:42;;;;;;;3.05;1.40;;;9.30;75.80;;;;;;625554;230;26817;-75
2022/05/09 00:28:09;;;;;;;1.40;1.30;;;9.20;76.50;;;;;;625669;230;26563;-76
2022/05/09 00:30:37;;;;;;;1.37;1.30;;;9.20;76.70;;;;;;626133;230;26598;-75
2022/05/09 00:33:05;;;;;;;1.50;1.40;;;9.20;77.60;;;;;;619033;230;26686;-75
2022/05/09 00:35:32;;;;;;;1.42;1.30;;;9.20;77.70;;;;;;622803;230;26640;-75
2022/05/09 00:37:59;;;;;;;3.15;2.00;;;9.10;78.80;;;;;;617390;233;26817;-75
2022/05/09 00:40:27;;;;;;;1.58;1.35;;;9.20;77.40;;;;;;617452;233;26603;-76
2022/05/09 00:42:55;;;;;;;1.50;1.37;;;9.10;77.20;;;;;;624629;230;26590;-75
2022/05/09 00:45:23;;;;;;;1.52;1.17;;;9.10;80.20;;;;;;625897;228;26551;-75
2022/05/09 00:47:51;;;;;;;1.92;1.30;;;9.10;78.20;;;;;;626352;229;27279;-75
2022/05/09 00:50:18;;;;;;;1.37;1.27;;;9.10;78.20;;;;;;626956;229;26834;-75
2022/05/09 00:52:48;;;;;;;1.62;1.52;;;9.10;79.10;;;;;;619434;229;26581;-75
2022/05/09 00:55:20;;;;;;;1.30;1.20;;;9.00;80.70;;;;;;626744;229;26555;-75
2022/05/09 00:57:52;;;;;;;1.70;1.40;;;9.00;80.80;;;;;;622301;229;26632;-75
2022/05/09 01:00:17;;;;;;;1.45;1.35;;;9.00;81.00;;;;;;623014;230;26575;-75
2022/05/09 01:02:46;;;;;;;1.48;1.37;;;9.00;80.00;;;;;;626993;226;26831;-76
2022/05/09 01:05:12;;;;;;;1.80;1.40;;;9.00;80.30;;;;;;626908;229;26530;-75
2022/05/09 01:07:39;;;;;;;1.35;1.23;;;8.90;80.90;;;;;;626899;229;26528;-76
2022/05/09 01:10:07;;;;;;;1.23;1.20;;;8.80;80.30;;;;;;626786;229;26530;-75
2022/05/09 01:12:35;;;;;;;1.75;1.60;;;8.80;80.20;;;;;;626805;229;26551;-76
2022/05/09 01:15:03;;;;;;;1.77;1.27;;;8.80;82.10;;;;;;625478;230;26534;-76
2022/05/09 01:17:31;;;;;;;1.00;1.00;;;8.80;79.90;;;;;;625445;229;26778;-76
2022/05/09 01:19:59;;;;;;;1.37;1.27;;;8.80;81.40;;;;;;626506;229;26544;-76
2022/05/09 01:22:27;;;;;;;2.42;1.27;;;8.70;80.50;;;;;;619592;229;26616;-67
2022/05/09 01:24:55;;;;;;;1.25;1.17;;;8.70;80.60;;;;;;624620;230;26559;-67
2022/05/09 01:27:23;;;;;;;1.48;1.37;;;8.70;81.60;;;;;;620155;228;26633;-67
2022/05/09 01:29:56;;;;;;;1.23;1.12;;;8.70;83.40;;;;;;626137;230;26584;-67
2022/05/09 01:32:24;;;;;;;1.27;1.20;;;8.70;83.30;;;;;;619369;230;26634;-67
2022/05/09 01:34:51;;;;;;;3.00;1.40;;;8.70;82.90;;;;;;617876;230;26627;-67
2022/05/09 01:37:18;;;;;;;2.15;1.55;;;8.60;81.80;;;;;;624771;229;27112;-67
2022/05/09 01:39:46;;;;;;;1.48;1.20;;;8.50;82.50;;;;;;626186;230;26572;-67
2022/05/09 01:42:14;;;;;;;1.55;1.40;;;8.50;82.70;;;;;;620192;229;26636;-67
2022/05/09 01:44:42;;;;;;;1.42;1.20;;;8.50;82.70;;;;;;623768;230;26557;-67
2022/05/09 01:49:42;;;;;;;1.42;1.30;;;8.40;82.70;;;;;;621415;230;26849;-67
2022/05/09 01:52:09;;;;;;;1.45;1.35;;;8.40;83.90;;;;;;625326;227;26571;-67
2022/05/09 01:54:39;;;;;;;1.58;1.37;;;8.40;82.70;;;;;;624870;230;26821;-67
2022/05/09 01:57:04;;;;;;;1.58;1.40;;;8.40;82.80;;;;;;626538;227;26564;-67
2022/05/09 01:59:31;;;;;;;1.30;1.20;;;8.40;83.00;;;;;;624429;228;26569;-67
2022/05/09 02:02:00;;;;;;;1.27;1.10;;;8.40;83.20;;;;;;621988;229;26860;-67
2022/05/09 02:04:28;;;;;;;1.73;1.10;;;8.40;84.30;;;;;;619414;229;26571;-67
2022/05/09 02:06:57;;;;;;;2.25;1.45;;;8.40;84.50;;;;;;624852;229;26567;-67
2022/05/09 02:09:23;;;;;;;1.20;1.15;;;8.40;84.50;;;;;;621179;230;27257;-66
2022/05/09 02:11:50;;;;;;;1.10;1.00;;;8.30;85.20;;;;;;626303;226;26617;-66
2022/05/09 02:14:17;;;;;;;1.52;1.20;;;8.30;85.40;;;;;;625670;229;26564;-66
2022/05/09 02:16:45;;;;;;;1.30;1.30;;;8.30;86.00;;;;;;628304;228;26555;-66
2022/05/09 02:19:13;;;;;;;1.20;1.12;;;8.30;84.80;;;;;;626481;229;26564;-66
2022/05/09 02:21:41;;;;;;;1.40;1.30;;;8.20;85.20;;;;;;625742;227;26620;-66
2022/05/09 02:24:09;;;;;;;1.95;1.40;;;8.20;85.90;;;;;;625114;230;26564;-66
2022/05/09 02:26:37;;;;;;;1.45;1.30;;;8.20;85.30;;;;;;625390;229;26798;-66
2022/05/09 02:29:04;;;;;;;1.52;1.40;;;8.20;85.50;;;;;;619950;230;26557;-66
2022/05/09 02:31:32;;;;;;;1.08;1.08;;;8.10;85.60;;;;;;625054;230;26806;-66
2022/05/09 02:34:01;;;;;;;1.73;1.58;;;8.10;86.00;;;;;;626275;229;26542;-66
2022/05/09 02:36:26;;;;;;;1.48;1.35;;;8.10;87.60;;;;;;624988;230;26766;-66
2022/05/09 02:38:53;;;;;;;1.10;1.08;;;8.10;86.50;;;;;;619838;230;26588;-66
2022/05/09 02:41:22;;;;;;;1.40;1.30;;;8.00;87.00;;;;;;622899;230;26811;-66
2022/05/09 02:43:49;;;;;;;1.48;1.37;;;8.10;90.10;;;;;;623020;227;26620;-66
2022/05/09 02:46:16;;;;;;;1.42;1.12;;;8.00;90.00;;;;;;619143;230;26582;-66
2022/05/09 02:48:44;;;;;;;1.52;1.42;;;8.00;89.50;;;;;;624705;230;26558;-66
2022/05/09 02:51:13;;;;;;;1.40;1.30;;;8.00;90.00;;;;;;619908;230;26639;-66
2022/05/09 02:53:39;;;;;;;1.73;1.15;;;8.00;91.20;;;;;;625345;226;26634;-66
2022/05/09 02:56:07;;;;;;;1.45;1.20;;;8.00;91.20;;;;;;619572;230;26818;-66
2022/05/09 02:58:35;;;;;;;1.95;1.60;;;7.90;89.90;;;;;;624370;230;26562;-66
2022/05/09 03:01:03;;;;;;;1.15;1.05;;;7.90;90.00;;;;;;623637;230;26558;-66
2022/05/09 03:06:04;;;;;;;1.48;1.37;;;7.90;90.90;;;;;;626255;230;26574;-66
2022/05/09 03:08:32;;;;;;;2.05;1.25;;;8.00;91.50;;;;;;625677;230;26575;-66
2022/05/09 03:11:00;;;;;;;1.15;1.05;;;7.90;91.00;;;;;;621436;229;26577;-66
2022/05/09 03:13:28;;;;;;;1.52;1.20;;;7.90;91.10;;;;;;627326;229;26896;-66
2022/05/09 03:15:58;;;;;;;1.30;1.20;;;7.80;91.00;;;;;;627159;229;26784;-66
2022/05/09 03:18:24;;;;;;;1.30;1.20;;;7.90;91.30;;;;;;625773;228;26536;-66
2022/05/09 03:20:51;;;;;;;1.20;1.10;;;7.90;91.30;;;;;;626488;229;26964;-66
2022/05/09 03:23:18;;;;;;;1.40;1.30;;;7.90;91.40;;;;;;626017;228;26635;-66
2022/05/09 03:25:45;;;;;;;1.67;1.40;;;7.80;91.20;;;;;;621528;229;26864;-66
2022/05/09 03:28:12;;;;;;;1.30;1.20;;;7.80;91.00;;;;;;624616;228;26555;-66
2022/05/09 03:30:40;;;;;;;1.35;1.25;;;7.80;92.00;;;;;;626224;229;26560;-66
2022/05/09 03:33:08;;;;;;;1.40;1.30;;;7.90;92.00;;;;;;625532;229;26598;-67
2022/05/09 03:35:36;;;;;;;1.52;1.42;;;7.90;92.00;;;;;;626526;229;26551;-67
2022/05/09 03:38:03;;;;;;;1.15;1.02;;;7.80;91.60;;;;;;620254;229;26808;-67
2022/05/09 03:40:30;;;;;;;1.10;1.00;;;7.80;91.80;;;;;;624996;228;26538;-67
2022/05/09 03:42:59;;;;;;;1.25;1.15;;;7.80;92.00;;;;;;619990;229;26833;-67
2022/05/09 03:45:24;;;;;;;1.12;1.12;;;7.90;91.40;;;;;;625759;229;26564;-66
2022/05/09 03:47:51;;;;;;;0.98;0.98;;;7.90;92.00;;;;;;625697;230;26571;-66
2022/05/09 03:50:19;;;;;;;1.48;1.37;;;7.90;92.10;;;;;;618954;230;26627;-66
2022/05/09 03:52:47;;;;;;;1.15;1.12;;;7.80;92.10;;;;;;624544;230;26599;-66
2022/05/09 03:55:14;;;;;;;1.33;1.20;;;7.90;91.80;;;;;;620173;230;26611;-67
2022/05/09 03:57:44;;;;;;;1.45;1.35;;;7.90;93.00;;;;;;625656;230;26804;-67
2022/05/09 04:00:11;;;;;;;1.70;1.58;;;7.90;92.80;;;;;;625147;230;26560;-67
2022/05/09 04:02:39;;;;;;;1.30;1.20;;;7.90;92.30;;;;;;626187;230;26587;-67
2022/05/09 04:05:08;;;;;;;2.85;1.05;;;8.00;92.30;;;;;;623412;229;26804;-67
2022/05/09 04:07:34;;;;;;;1.12;1.10;;;7.90;92.40;;;;;;621551;230;26600;-67
2022/05/09 04:10:02;;;;;;;0.95;0.95;;;8.00;93.20;;;;;;626183;230;26793;-67
2022/05/09 04:12:28;;;;;;;1.65;1.12;;;8.00;92.30;;;;;;626567;230;26561;-66
2022/05/09 04:17:29;;;;;;;1.20;1.10;;;8.00;92.40;;;;;;622485;230;26556;-66
2022/05/09 04:19:57;;;;;;;2.50;1.40;;;8.10;93.00;;;;;;623365;230;26558;-66
2022/05/09 04:22:24;;;;;;;1.35;1.20;;;8.10;92.90;;;;;;620560;228;26857;-66
2022/05/09 04:24:51;;;;;;;2.75;1.65;;;8.10;92.40;;;;;;627431;229;26643;-67
2022/05/09 04:27:19;;;;;;;1.33;1.25;;;8.20;92.40;;;;;;626555;229;26763;-67
2022/05/09 04:29:47;;;;;;;1.40;1.30;;;8.20;92.10;;;;;;626502;229;26801;-66
2022/05/09 04:32:14;;;;;;;1.25;1.15;;;8.30;93.50;;;;;;625668;229;26629;-66
2022/05/09 04:34:42;;;;;;;2.22;1.20;;;8.40;93.60;;;;;;626776;229;26629;-66
2022/05/09 04:37:09;;;;;;;1.10;1.10;;;8.40;93.60;;;;;;623791;229;26612;-66
2022/05/09 04:39:37;;;;;;;1.75;1.50;;;8.50;93.60;;;;;;617826;233;26565;-67
2022/05/09 04:42:05;;;;;;;1.10;1.10;;;8.50;93.10;;;;;;617685;233;26815;-67
2022/05/09 04:44:32;;;;;;;1.42;1.33;;;8.60;92.40;;;;;;625054;229;26567;-66
2022/05/09 04:46:59;;;;;;;1.20;1.15;;;8.70;93.60;;;;;;619769;229;27136;-66
2022/05/09 04:49:27;;;;;;;1.52;1.42;;;8.70;92.60;;;;;;621701;230;26547;-66
2022/05/09 04:51:54;;;;;;;1.00;1.00;;;8.70;92.20;;;;;;623427;229;26615;-66
2022/05/09 04:54:22;;;;;;;1.05;1.05;;;8.90;92.90;;;;;;625373;229;26556;-66
2022/05/09 04:56:49;;;;;;;1.25;1.15;;;8.90;92.90;;;;;;626120;229;26528;-66
2022/05/09 04:59:16;;;;;;;1.30;1.20;;;9.00;92.50;;;;;;625294;228;26564;-67
2022/05/09 05:01:44;;;;;;;1.35;1.25;;;9.00;92.30;;;;;;626082;230;26792;-67
2022/05/09 05:04:11;;;;;;;1.08;1.08;;;9.10;92.10;;;;;;626123;230;26559;-67
2022/05/09 05:06:38;;;;;;;1.20;1.20;;;9.20;92.10;;;;;;617725;229;26942;-66
2022/05/09 05:09:06;;;;;;;1.60;1.50;;;9.30;91.20;;;;;;617348;233;26609;-67
2022/05/09 05:11:35;;;;;;;1.17;1.15;;;9.30;91.20;;;;;;621872;230;26645;-67
2022/05/09 05:14:02;;;;;;;1.40;1.30;;;9.40;91.70;;;;;;620041;230;26614;-67
2022/05/09 05:19:02;;;;;;;1.75;1.27;;;9.50;90.80;;;;;;624794;230;26799;-66
2022/05/09 05:21:29;;;;;;;1.30;1.20;;;9.60;92.30;;;;;;625476;230;26560;-67
2022/05/09 05:23:59;;;;;;;2.25;1.50;;;9.90;90.60;;;;;;623642;230;26845;-67
2022/05/09 05:26:24;;;;;;;1.30;1.30;;;9.80;90.60;;;;;;618560;229;26828;-66
2022/05/09 05:28:51;;;;;;;1.10;1.10;;;9.90;90.20;;;;;;617511;233;27212;-67
2022/05/09 05:31:19;;;;;;;1.15;1.15;;;10.00;88.30;;;;;;620963;228;26619;-67
2022/05/09 05:33:46;;;;;;;1.98;1.20;;;10.10;89.10;;;;;;627892;227;26835;-66
2022/05/09 05:36:14;;;;;;;2.28;1.10;;;10.20;90.30;;;;;;620469;228;26606;-69
2022/05/09 05:38:41;;;;;;;2.00;1.20;;;10.30;89.70;;;;;;618274;233;26835;-67
2022/05/09 05:41:08;;;;;;;1.30;1.20;;;10.50;86.80;;;;;;618133;233;26621;-66
2022/05/09 05:43:36;;;;;;;1.00;1.00;;;10.50;86.80;;;;;;617982;231;26573;-66
2022/05/09 05:46:03;;;;;;;1.35;1.23;;;10.60;86.40;;;;;;618042;233;26847;-67
2022/05/09 05:48:31;;;;;;;2.00;1.20;;;10.70;89.10;;;;;;618083;233;26530;-67
2022/05/09 05:50:58;;;;;;;1.60;1.50;;;10.80;86.50;;;;;;617875;233;26579;-67
2022/05/09 05:53:26;;;;;;;1.58;1.48;;;11.00;85.70;;;;;;617695;233;26848;-67
2022/05/09 05:55:53;;;;;;;2.42;1.77;;;11.00;85.60;;;;;;617744;233;26895;-67
2022/05/09 05:58:23;;;;;;;2.33;1.50;;;11.20;84.10;;;;;;617725;233;26551;-66
2022/05/09 06:00:48;;;;;;;2.50;1.92;;;11.20;82.20;;;;;;617564;233;26804;-66
2022/05/09 06:03:16;;;;;;;1.73;1.52;;;11.50;83.80;;;;;;617684;233;26573;-66
2022/05/09 06:05:43;;;;;;;1.58;1.48;;;11.50;83.90;;;;;;618592;229;26556;-66
2022/05/09 06:08:11;;;;;;;1.67;1.52;;;11.70;83.10;;;;;;624229;229;26555;-66
2022/05/09 06:10:39;;;;;;;3.58;2.03;;;11.70;81.70;;;;;;625195;230;26601;-66
2022/05/09 06:13:07;;;;;;;2.12;1.70;;;11.70;81.60;;;;;;623317;227;26639;-66
2022/05/09 06:15:36;;;;;;;3.75;1.85;;;11.80;80.40;;;;;;622369;230;26542;-66
2022/05/09 06:18:01;;;;;;;2.30;2.10;;;12.00;80.10;;;;;;622045;230;26839;-66
2022/05/09 06:20:30;;;;;;;2.28;1.90;;;12.10;79.70;;;;;;624596;229;26551;-66
2022/05/09 06:22:56;;;;;;;2.47;1.60;;;12.20;80.90;;;;;;624161;229;26807;-66
2022/05/09 06:25:23;;;;;;;3.78;1.92;;;12.30;78.10;;;;;;622902;230;26622;-67
2022/05/09 06:27:51;;;;;;;4.82;2.20;;;12.50;79.80;;;;;;625435;230;26624;-66
2022/05/09 06:30:18;;;;;;;5.40;2.12;;;12.50;79.70;;;;;;626160;230;26559;-66
2022/05/09 06:32:45;;;;;;;6.75;2.22;;;12.60;78.70;;;;;;622744;230;26619;-66
2022/05/09 06:35:14;;;;;;;2.60;1.83;;;12.80;78.20;;;;;;624051;230;26811;-66
2022/05/09 06:37:42;;;;;;;2.17;1.98;;;12.90;79.80;;;;;;621649;230;26616;-66
2022/05/09 06:40:10;;;;;;;4.25;1.80;;;12.80;79.40;;;;;;623133;230;26614;-67
2022/05/09 06:42:37;;;;;;;3.83;2.05;;;12.90;78.70;;;;;;622898;229;26597;-67
2022/05/09 06:45:06;;;;;;;2.35;2.20;;;13.20;77.40;;;;;;623902;228;27287;-67
2022/05/09 06:47:34;;;;;;;3.62;2.00;;;13.20;77.40;;;;;;625133;229;26607;-66
2022/05/09 06:50:01;;;;;;;2.35;2.15;;;13.30;76.40;;;;;;623711;229;26808;-66
2022/05/09 06:52:28;;;;;;;2.65;2.10;;;13.30;75.90;;;;;;625059;229;26591;-66
2022/05/09 06:54:55;;;;;;;2.08;1.87;;;13.50;73.60;;;;;;624014;229;26838;-67
2022/05/09 06:57:22;;;;;;;3.17;1.80;;;13.50;74.30;;;;;;623703;229;26619;-65
2022/05/09 06:59:50;;;;;;;2.08;1.98;;;13.60;73.20;;;;;;623836;229;26822;-66
2022/05/09 07:02:18;;;;;;;2.35;2.03;;;13.90;75.80;;;;;;623207;229;26582;-68
2022/05/09 07:04:46;;;;;;;31.08;7.65;;;14.00;75.50;;;;;;623966;228;26551;-64
2022/05/09 07:07:14;;;;;;;107.40;21.83;;;14.10;75.50;;;;;;624059;229;26530;-64
2022/05/09 07:09:41;;;;;;;360.88;43.35;;;14.10;73.80;;;;;;623527;229;26532;-65
2022/05/09 07:12:09;;;;;;;139.15;29.08;;;14.10;74.00;;;;;;624115;229;26575;-66
2022/05/09 07:14:37;;;;;;;119.15;25.95;;;14.20;75.80;;;;;;622973;229;26570;-66
2022/05/09 07:17:05;;;;;;;111.47;24.37;;;14.30;73.70;;;;;;624029;228;26792;-67
2022/05/09 07:19:32;;;;;;;38.50;10.35;;;14.40;74.10;;;;;;622934;229;26535;-66
2022/05/09 07:22:00;;;;;;;83.12;19.15;;;14.50;70.90;;;;;;624156;226;26608;-66
2022/05/09 07:24:28;;;;;;;65.32;18.10;;;14.50;69.90;;;;;;623774;228;26620;-62
2022/05/09 07:26:56;;;;;;;75.68;16.92;;;14.50;70.40;;;;;;623199;230;26544;-63
2022/05/09 07:29:24;;;;;;;56.10;16.73;;;14.60;72.40;;;;;;623561;230;26551;-62
2022/05/09 07:31:52;;;;;;;68.75;15.25;;;14.70;71.70;;;;;;622750;230;26619;-62
2022/05/09 07:34:20;;;;;;;65.78;14.80;;;14.80;70.20;;;;;;622410;230;26630;-62
2022/05/09 07:36:47;;;;;;;40.10;12.13;;;14.80;70.10;;;;;;617034;233;26602;-62
2022/05/09 07:39:15;;;;;;;35.88;10.48;;;14.90;71.50;;;;;;617087;233;26653;-62
2022/05/09 07:41:43;;;;;;;10.27;4.93;;;14.90;71.50;;;;;;616739;233;26615;-62
2022/05/09 07:44:10;;;;;;;19.55;6.10;;;15.00;69.00;;;;;;616700;233;27273;-62
2022/05/09 07:46:37;;;;;;;7.60;4.68;;;15.10;70.80;;;;;;616959;233;26611;-61
2022/05/09 07:49:05;;;;;;;6.62;4.00;;;15.10;70.30;;;;;;617004;233;26610;-62
2022/05/09 07:51:33;;;;;;;3.75;3.03;;;15.10;70.50;;;;;;617224;232;26625;-62
2022/05/09 07:53:59;;;;;;;9.93;3.75;;;15.20;68.40;;;;;;617277;233;26813;-62
2022/05/09 07:56:27;;;;;;;7.22;3.25;;;15.20;66.90;;;;;;618648;230;26629;-62
2022/05/09 07:58:55;;;;;;;9.88;3.78;;;15.20;68.90;;;;;;618650;232;26582;-62
2022/05/09 08:01:23;;;;;;;9.73;3.87;;;15.40;68.90;;;;;;618332;232;26591;-61
2022/05/09 08:03:51;;;;;;;7.45;3.10;;;15.40;71.80;;;;;;618330;231;26587;-62
2022/05/09 08:06:19;;;;;;;8.50;3.60;;;15.60;66.50;;;;;;618059;233;26557;-62
2022/05/09 08:08:48;;;;;;;6.87;3.20;;;15.60;66.50;;;;;;623426;229;26707;-63
2022/05/09 08:11:16;;;;;;;5.90;3.35;;;15.70;67.70;;;;;;626880;228;26623;-63
2022/05/09 08:13:41;;;;;;;4.07;2.97;;;15.80;68.50;;;;;;626015;229;27238;-63
2022/05/09 08:16:08;;;;;;;9.07;3.75;;;15.90;69.50;;;;;;622057;229;26570;-64
2022/05/09 08:18:35;;;;;;;6.20;2.65;;;15.90;67.70;;;;;;619202;229;26975;-64
2022/05/09 08:21:03;;;;;;;7.82;3.25;;;16.00;65.50;;;;;;623163;229;26560;-64
2022/05/09 08:23:30;;;;;;;6.28;3.12;;;16.10;68.50;;;;;;621558;229;27278;-64
2022/05/09 08:25:58;;;;;;;9.50;4.07;;;16.00;67.70;;;;;;617511;232;26542;-64
2022/05/09 08:28:24;;;;;;;6.75;3.95;;;16.00;68.20;;;;;;624786;229;26558;-63
2022/05/09 08:30:52;;;;;;;6.75;3.45;;;16.20;66.80;;;;;;618037;233;26835;-64
2022/05/09 08:33:19;;;;;;;6.80;3.58;;;16.20;67.60;;;;;;622187;230;26591;-67
2022/05/09 08:35:46;;;;;;;6.10;3.33;;;16.20;67.10;;;;;;624531;230;26807;-65
2022/05/09 08:38:13;;;;;;;7.62;3.87;;;16.30;68.00;;;;;;619577;230;26560;-66
2022/05/09 08:40:41;;;;;;;7.75;3.33;;;16.30;68.30;;;;;;625054;230;26784;-65
2022/05/09 08:43:15;;;;;;;6.43;3.95;;;16.50;64.70;;;;;;617443;233;26625;-65
2022/05/09 08:45:42;;;;;;;5.72;3.65;;;16.50;64.60;;;;;;617444;230;26567;-65
2022/05/09 08:48:09;;;;;;;7.20;3.47;;;16.60;62.80;;;;;;624362;230;26815;-65
2022/05/09 08:50:42;;;;;;;5.78;3.25;;;16.60;63.40;;;;;;625246;227;26527;-65
2022/05/09 08:53:10;;;;;;;6.57;3.97;;;16.80;62.90;;;;;;620125;230;26633;-65
2022/05/09 08:55:38;;;;;;;6.57;2.97;;;16.80;59.00;;;;;;625303;230;26571;-64
2022/05/09 08:58:13;;;;;;;3.78;3.12;;;16.70;61.30;;;;;;624763;230;26555;-65
2022/05/09 09:00:40;;;;;;;6.65;3.50;;;16.80;61.20;;;;;;618924;230;26814;-65
2022/05/09 09:03:24;;;;;;;3.62;2.72;;;16.90;62.20;;;;;;622637;227;26618;-64
2022/05/09 09:05:54;;;;;;;4.85;2.78;;;16.90;61.90;;;;;;626020;228;26601;-65
2022/05/09 09:08:22;;;;;;;6.82;2.67;;;16.90;60.40;;;;;;627421;227;26630;-65
2022/05/09 09:10:53;;;;;;;3.47;2.60;;;16.90;60.50;;;;;;627349;229;26810;-65
2022/05/09 09:13:23;;;;;;;2.83;2.55;;;16.90;63.20;;;;;;626725;229;26590;-65
2022/05/09 09:15:49;;;;;;;6.75;3.30;;;17.00;63.20;;;;;;626707;229;26570;-65
2022/05/09 09:18:35;;;;;;;8.75;3.03;;;17.20;60.10;;;;;;626681;228;26620;-65
2022/05/09 09:21:07;;;;;;;5.80;3.03;;;17.20;60.20;;;;;;616594;229;26624;-64
2022/05/09 09:23:38;;;;;;;6.55;3.00;;;17.40;58.60;;;;;;626684;229;26890;-65
2022/05/09 09:26:05;;;;;;;7.85;2.87;;;17.40;57.80;;;;;;626375;229;26804;-65
2022/05/09 09:28:46;;;;;;;5.70;3.08;;;17.40;57.00;;;;;;626322;229;26522;-64
2022/05/09 09:31:07;;;;;;;5.65;2.85;;;17.50;58.70;;;;;;625990;229;26567;-64
2022/05/09 09:33:35;;;;;;;8.70;2.80;;;17.50;55.50;;;;;;626513;229;26561;-64
2022/05/09 09:36:05;;;;;;;6.55;2.72;;;17.50;56.20;;;;;;626570;229;26560;-64
2022/05/09 09:38:46;;;;;;;5.22;2.62;;;17.50;56.10;;;;;;624171;229;26551;-65
2022/05/09 09:41:21;;;;;;;4.57;2.72;;;17.50;54.20;;;;;;625253;229;26769;-67
2022/05/09 09:43:48;;;;;;;7.53;2.55;;;17.50;57.40;;;;;;624181;227;27261;-64
2022/05/09 09:46:15;;;;;;;2.53;2.30;;;17.50;55.70;;;;;;624337;230;26549;-64
2022/05/09 09:48:43;;;;;;;7.40;3.25;;;17.60;56.50;;;;;;624829;230;26797;-64
2022/05/09 09:51:10;;;;;;;2.45;2.25;;;17.70;55.20;;;;;;624716;230;26555;-63
2022/05/09 09:53:46;;;;;;;2.95;2.40;;;17.70;57.70;;;;;;624502;229;26671;-63
2022/05/09 09:56:29;;;;;;;4.18;2.28;;;17.70;57.70;;;;;;624247;230;26800;-63
2022/05/09 09:58:58;;;;;;;2.42;2.22;;;17.70;54.80;;;;;;624864;230;26555;-64
2022/05/09 10:01:25;;;;;;;2.22;2.03;;;17.80;53.60;;;;;;624809;230;26787;-64
2022/05/09 10:04:04;;;;;;;3.53;1.80;;;17.90;54.80;;;;;;624755;230;26587;-64
2022/05/09 10:06:31;;;;;;;2.83;2.22;;;17.90;56.00;;;;;;624760;229;26800;-63
2022/05/09 10:08:58;;;;;;;3.03;2.30;;;18.00;55.90;;;;;;624839;230;26571;-63
2022/05/09 10:11:28;;;;;;;4.07;2.25;;;18.10;55.60;;;;;;624816;230;27226;-64
2022/05/09 10:13:53;;;;;;;5.95;2.22;;;18.10;53.70;;;;;;624739;230;26554;-63
2022/05/09 10:16:26;;;;;;;2.55;1.98;;;17.90;53.80;;;;;;624867;229;26909;-64
2022/05/09 10:18:53;;;;;;;2.47;1.80;;;17.90;55.00;;;;;;625623;228;26603;-64
2022/05/09 10:24:47;;;;;;;2.30;2.10;;;17.90;55.20;;;;;;626222;228;26561;-63
2022/05/09 10:26:23;;;;;;;4.90;2.37;;;18.10;56.20;;;;;;625771;229;26561;-63
2022/05/09 10:28:54;;;;;;;2.50;2.20;;;18.10;56.00;;;;;;625236;230;26569;-64
2022/05/09 10:31:21;;;;;;;3.45;2.60;;;18.20;52.60;;;;;;625309;230;26807;-64
2022/05/09 10:33:50;;;;;;;2.60;1.60;;;18.30;52.00;;;;;;625334;230;26657;-64
2022/05/09 10:36:18;;;;;;;3.08;1.98;;;18.30;52.00;;;;;;625029;230;26604;-64
2022/05/09 10:39:00;;;;;;;3.33;2.05;;;18.40;51.60;;;;;;625052;230;26557;-64
2022/05/09 10:41:27;;;;;;;3.45;2.55;;;18.50;50.90;;;;;;624675;230;26638;-64
2022/05/09 10:43:59;;;;;;;4.07;2.35;;;18.60;51.30;;;;;;625021;230;26934;-64
2022/05/09 10:46:40;;;;;;;2.70;2.45;;;18.60;51.30;;;;;;625025;230;26759;-64
2022/05/09 10:49:06;;;;;;;4.70;2.20;;;18.60;51.40;;;;;;624935;230;26560;-64
2022/05/09 10:51:35;;;;;;;3.53;2.58;;;18.60;51.20;;;;;;625051;230;26811;-64
2022/05/09 10:54:02;;;;;;;4.05;2.08;;;18.70;49.20;;;;;;624951;230;26566;-64
2022/05/09 10:56:36;;;;;;;2.42;2.10;;;18.70;50.20;;;;;;624551;229;26564;-64
2022/05/09 10:59:05;;;;;;;3.22;2.30;;;18.70;50.40;;;;;;624665;230;26555;-64
2022/05/09 11:01:52;;;;;;;2.35;2.10;;;18.70;50.60;;;;;;624667;230;26793;-64
2022/05/09 11:04:19;;;;;;;2.55;1.95;;;18.70;50.70;;;;;;624888;230;26826;-64
2022/05/09 11:07:20;;;;;;;2.50;2.00;;;18.80;51.40;;;;;;625299;230;26557;-63
2022/05/09 11:09:51;;;;;;;2.20;1.80;;;19.00;51.20;;;;;;623627;230;26615;-64
2022/05/09 11:12:43;;;;;;;2.28;1.90;;;19.00;49.20;;;;;;624899;230;26563;-64
2022/05/09 11:15:14;;;;;;;2.50;2.30;;;19.00;49.20;;;;;;621092;228;26543;-63
2022/05/09 11:17:50;;;;;;;2.33;2.12;;;19.10;52.70;;;;;;624923;230;26768;-64
2022/05/09 11:20:38;;;;;;;2.00;1.90;;;19.30;50.10;;;;;;625152;230;26551;-64
2022/05/09 11:23:08;;;;;;;2.42;2.22;;;19.40;52.30;;;;;;620346;230;26639;-64
2022/05/09 11:25:53;;;;;;;2.40;2.20;;;19.30;52.00;;;;;;624514;230;26608;-64
2022/05/09 11:28:27;;;;;;;2.30;2.10;;;19.60;51.10;;;;;;620103;230;26615;-64
2022/05/09 11:31:04;;;;;;;2.50;2.00;;;19.60;51.00;;;;;;625682;228;26610;-65
2022/05/09 11:33:49;;;;;;;2.25;2.05;;;19.60;52.00;;;;;;626037;230;26643;-64
2022/05/09 11:36:23;;;;;;;1.95;1.75;;;19.60;54.20;;;;;;615241;228;26868;-64
2022/05/09 11:39:08;;;;;;;2.67;1.92;;;19.70;52.70;;;;;;625375;230;26588;-64
2022/05/09 11:41:40;;;;;;;3.53;1.95;;;19.60;52.60;;;;;;621277;230;26636;-63
2022/05/09 11:44:11;;;;;;;4.07;2.40;;;19.90;49.00;;;;;;625152;230;26595;-64
2022/05/09 11:46:46;;;;;;;1.90;1.80;;;19.90;49.00;;;;;;625368;230;26630;-64
2022/05/09 11:49:22;;;;;;;2.58;2.10;;;19.90;47.40;;;;;;624950;230;26543;-63
2022/05/09 11:51:54;;;;;;;4.72;1.90;;;19.90;47.50;;;;;;625118;230;26543;-64
2022/05/09 11:54:27;;;;;;;2.53;1.90;;;20.00;47.60;;;;;;625001;230;26809;-64
2022/05/09 11:56:55;;;;;;;2.30;2.08;;;20.10;48.50;;;;;;625449;230;26541;-64
2022/05/09 11:59:25;;;;;;;2.20;1.70;;;20.20;47.50;;;;;;625424;230;26536;-64
2022/05/09 12:01:53;;;;;;;2.00;1.70;;;20.30;50.10;;;;;;625465;229;26570;-64
2022/05/09 12:04:27;;;;;;;3.22;2.10;;;20.30;49.70;;;;;;625273;230;26821;-64
2022/05/09 12:06:54;;;;;;;2.45;2.05;;;20.40;48.10;;;;;;624845;230;26561;-64
2022/05/09 12:09:38;;;;;;;2.33;1.75;;;20.50;46.50;;;;;;624826;230;26569;-63
2022/05/09 12:12:06;;;;;;;2.67;1.90;;;20.50;46.40;;;;;;624052;230;26581;-64
2022/05/09 12:14:38;;;;;;;4.18;2.00;;;20.50;46.50;;;;;;624903;228;26562;-64
2022/05/09 12:17:22;;;;;;;3.40;2.37;;;20.70;46.60;;;;;;624714;230;26627;-64
2022/05/09 12:19:49;;;;;;;2.47;1.87;;;20.90;46.90;;;;;;624387;230;26785;-64
2022/05/09 12:22:17;;;;;;;2.60;2.08;;;21.10;46.20;;;;;;624778;230;26546;-64
2022/05/09 12:24:44;;;;;;;2.10;1.90;;;21.40;44.70;;;;;;624823;230;26539;-64
2022/05/09 12:27:37;;;;;;;2.00;1.75;;;21.60;45.50;;;;;;624837;230;26566;-64
2022/05/09 12:30:05;;;;;;;1.70;1.60;;;21.80;44.90;;;;;;622494;230;26618;-64
2022/05/09 12:32:33;;;;;;;2.12;1.85;;;22.10;45.60;;;;;;624676;230;26552;-65
2022/05/09 12:35:01;;;;;;;2.67;2.10;;;22.70;46.90;;;;;;624936;230;26567;-63
2022/05/09 12:37:29;;;;;;;2.17;1.90;;;22.80;46.80;;;;;;624883;230;26558;-64
2022/05/09 12:39:56;;;;;;;1.80;1.70;;;23.10;46.60;;;;;;624883;230;26568;-64
2022/05/09 12:42:26;;;;;;;1.62;1.52;;;23.40;43.70;;;;;;625959;228;26670;-63
2022/05/09 12:44:54;;;;;;;2.12;1.70;;;23.40;43.90;;;;;;625976;228;27317;-64
2022/05/09 12:47:25;;;;;;;2.85;1.95;;;24.10;43.90;;;;;;625783;228;26573;-63
2022/05/09 12:49:58;;;;;;;2.60;2.17;;;24.00;43.80;;;;;;625711;230;26573;-64
2022/05/09 12:52:27;;;;;;;1.95;1.60;;;24.30;42.10;;;;;;625394;230;26624;-63
2022/05/09 12:57:34;;;;;;;2.05;1.73;;;25.20;43.30;;;;;;625503;230;26626;-64
2022/05/09 13:00:01;;;;;;;3.12;2.10;;;25.50;40.40;;;;;;625254;230;26836;-65
2022/05/09 13:02:28;;;;;;;2.95;2.55;;;25.70;40.80;;;;;;624886;230;26594;-64
2022/05/09 13:04:56;;;;;;;1.92;1.80;;;26.50;44.20;;;;;;624746;230;26800;-64
2022/05/09 13:07:24;;;;;;;2.10;1.90;;;26.50;43.90;;;;;;625100;230;26810;-65
2022/05/09 13:09:52;;;;;;;1.92;1.83;;;27.40;41.50;;;;;;625116;230;26559;-64
2022/05/09 13:12:21;;;;;;;2.22;1.98;;;27.90;41.40;;;;;;625065;229;26615;-64
2022/05/09 13:14:51;;;;;;;3.58;2.00;;;27.90;41.50;;;;;;625428;230;26782;-64